sensor_id;sensor_type;location;lat;lon;timestamp;temperature;humidity
74171;DHT22;62526;50.948;6.590;2022-10-16T00:01:04;13.80;97.90
74171;DHT22;62526;50.948;6.590;2022-10-16T00:03:26;13.70;97.90
74171;DHT22;62526;50.948;6.590;2022-10-16T00:05:52;13.70;97.80
74171;DHT22;62526;50.948;6.590;2022-10-16T00:08:19;13.70;97.80
74171;DHT22;62526;50.948;6.590;2022-10-16T00:10:46;13.70;97.50
74171;DHT22;62526;50.948;6.590;2022-10-16T00:13:12;13.70;97.80
74171;DHT22;62526;50.948;6.590;2022-10-16T00:15:39;13.70;97.80
74171;DHT22;62526;50.948;6.590;2022-10-16T00:18:06;13.80;97.80
74171;DHT22;62526;50.948;6.590;2022-10-16T00:20:34;13.80;97.80
74171;DHT22;62526;50.948;6.590;2022-10-16T00:23:00;13.80;97.80
74171;DHT22;62526;50.948;6.590;2022-10-16T00:25:26;13.80;97.70
74171;DHT22;62526;50.948;6.590;2022-10-16T00:27:54;13.70;97.70
74171;DHT22;62526;50.948;6.590;2022-10-16T00:30:20;13.70;97.70
74171;DHT22;62526;50.948;6.590;2022-10-16T00:32:47;13.70;97.70
74171;DHT22;62526;50.948;6.590;2022-10-16T00:35:14;13.70;97.70
74171;DHT22;62526;50.948;6.590;2022-10-16T00:37:40;13.70;97.70
74171;DHT22;62526;50.948;6.590;2022-10-16T00:40:08;13.60;97.60
74171;DHT22;62526;50.948;6.590;2022-10-16T00:42:34;13.60;97.60
74171;DHT22;62526;50.948;6.590;2022-10-16T00:45:01;13.60;97.70
74171;DHT22;62526;50.948;6.590;2022-10-16T00:47:30;13.60;97.80
74171;DHT22;62526;50.948;6.590;2022-10-16T00:49:58;13.60;97.80
74171;DHT22;62526;50.948;6.590;2022-10-16T00:52:22;13.50;97.80
74171;DHT22;62526;50.948;6.590;2022-10-16T00:54:49;13.60;97.80
74171;DHT22;62526;50.948;6.590;2022-10-16T00:57:15;13.50;97.60
74171;DHT22;62526;50.948;6.590;2022-10-16T00:59:42;13.60;97.60
74171;DHT22;62526;50.948;6.590;2022-10-16T01:02:11;13.50;97.60
74171;DHT22;62526;50.948;6.590;2022-10-16T01:04:37;13.50;97.70
74171;DHT22;62526;50.948;6.590;2022-10-16T01:07:10;13.50;97.60
74171;DHT22;62526;50.948;6.590;2022-10-16T01:09:54;13.50;97.70
74171;DHT22;62526;50.948;6.590;2022-10-16T01:12:38;13.50;97.70
74171;DHT22;62526;50.948;6.590;2022-10-16T01:15:10;13.50;97.60
74171;DHT22;62526;50.948;6.590;2022-10-16T01:17:36;13.60;97.60
74171;DHT22;62526;50.948;6.590;2022-10-16T01:20:10;13.60;97.60
74171;DHT22;62526;50.948;6.590;2022-10-16T01:22:43;13.60;97.50
74171;DHT22;62526;50.948;6.590;2022-10-16T01:25:06;13.60;97.40
74171;DHT22;62526;50.948;6.590;2022-10-16T01:27:32;13.60;97.30
74171;DHT22;62526;50.948;6.590;2022-10-16T01:30:02;13.60;97.40
74171;DHT22;62526;50.948;6.590;2022-10-16T01:32:48;13.60;97.40
74171;DHT22;62526;50.948;6.590;2022-10-16T01:35:18;13.60;97.40
74171;DHT22;62526;50.948;6.590;2022-10-16T01:37:48;13.60;97.20
74171;DHT22;62526;50.948;6.590;2022-10-16T01:40:14;13.60;97.20
74171;DHT22;62526;50.948;6.590;2022-10-16T01:42:42;13.60;97.50
74171;DHT22;62526;50.948;6.590;2022-10-16T01:45:08;13.60;97.30
74171;DHT22;62526;50.948;6.590;2022-10-16T01:47:35;13.70;97.30
74171;DHT22;62526;50.948;6.590;2022-10-16T01:50:02;13.70;97.30
74171;DHT22;62526;50.948;6.590;2022-10-16T01:52:28;13.70;97.20
74171;DHT22;62526;50.948;6.590;2022-10-16T01:54:55;13.70;97.10
74171;DHT22;62526;50.948;6.590;2022-10-16T01:57:22;13.70;96.90
74171;DHT22;62526;50.948;6.590;2022-10-16T01:59:49;13.80;96.90
74171;DHT22;62526;50.948;6.590;2022-10-16T02:02:15;13.80;96.90
74171;DHT22;62526;50.948;6.590;2022-10-16T02:04:44;13.80;96.90
74171;DHT22;62526;50.948;6.590;2022-10-16T02:07:09;13.80;96.80
74171;DHT22;62526;50.948;6.590;2022-10-16T02:09:36;13.80;96.80
74171;DHT22;62526;50.948;6.590;2022-10-16T02:12:06;13.80;96.80
74171;DHT22;62526;50.948;6.590;2022-10-16T02:14:30;13.80;96.80
74171;DHT22;62526;50.948;6.590;2022-10-16T02:16:56;13.80;96.80
74171;DHT22;62526;50.948;6.590;2022-10-16T02:19:23;13.80;96.80
74171;DHT22;62526;50.948;6.590;2022-10-16T02:21:58;13.80;96.80
74171;DHT22;62526;50.948;6.590;2022-10-16T02:24:34;13.80;96.70
74171;DHT22;62526;50.948;6.590;2022-10-16T02:27:22;13.80;96.60
74171;DHT22;62526;50.948;6.590;2022-10-16T02:29:47;13.80;96.50
74171;DHT22;62526;50.948;6.590;2022-10-16T02:32:13;13.80;96.40
74171;DHT22;62526;50.948;6.590;2022-10-16T02:34:39;13.80;96.40
74171;DHT22;62526;50.948;6.590;2022-10-16T02:37:07;13.80;96.50
74171;DHT22;62526;50.948;6.590;2022-10-16T02:39:33;13.80;96.50
74171;DHT22;62526;50.948;6.590;2022-10-16T02:42:00;13.80;96.50
74171;DHT22;62526;50.948;6.590;2022-10-16T02:44:27;13.70;96.50
74171;DHT22;62526;50.948;6.590;2022-10-16T02:46:54;13.60;96.60
74171;DHT22;62526;50.948;6.590;2022-10-16T02:49:21;13.50;96.60
74171;DHT22;62526;50.948;6.590;2022-10-16T02:51:47;13.50;96.60
74171;DHT22;62526;50.948;6.590;2022-10-16T02:54:14;13.40;96.70
74171;DHT22;62526;50.948;6.590;2022-10-16T02:56:41;13.40;96.70
74171;DHT22;62526;50.948;6.590;2022-10-16T02:59:07;13.30;96.90
74171;DHT22;62526;50.948;6.590;2022-10-16T03:01:34;13.30;96.90
74171;DHT22;62526;50.948;6.590;2022-10-16T03:04:02;13.20;96.90
74171;DHT22;62526;50.948;6.590;2022-10-16T03:06:28;13.20;96.90
74171;DHT22;62526;50.948;6.590;2022-10-16T03:08:55;13.20;96.90
74171;DHT22;62526;50.948;6.590;2022-10-16T03:11:23;13.10;96.80
74171;DHT22;62526;50.948;6.590;2022-10-16T03:13:51;13.10;96.90
74171;DHT22;62526;50.948;6.590;2022-10-16T03:16:19;13.10;96.90
74171;DHT22;62526;50.948;6.590;2022-10-16T03:18:48;13.10;96.90
74171;DHT22;62526;50.948;6.590;2022-10-16T03:21:14;13.10;96.90
74171;DHT22;62526;50.948;6.590;2022-10-16T03:23:41;13.10;96.90
74171;DHT22;62526;50.948;6.590;2022-10-16T03:26:07;13.10;96.90
74171;DHT22;62526;50.948;6.590;2022-10-16T03:28:34;13.10;96.80
74171;DHT22;62526;50.948;6.590;2022-10-16T03:31:01;13.10;96.80
74171;DHT22;62526;50.948;6.590;2022-10-16T03:33:28;13.10;96.70
74171;DHT22;62526;50.948;6.590;2022-10-16T03:35:55;13.20;96.70
74171;DHT22;62526;50.948;6.590;2022-10-16T03:38:22;13.20;96.70
74171;DHT22;62526;50.948;6.590;2022-10-16T03:40:49;13.20;96.60
74171;DHT22;62526;50.948;6.590;2022-10-16T03:43:16;13.20;96.50
74171;DHT22;62526;50.948;6.590;2022-10-16T03:45:43;13.10;96.30
74171;DHT22;62526;50.948;6.590;2022-10-16T03:48:10;13.10;96.50
74171;DHT22;62526;50.948;6.590;2022-10-16T03:50:37;13.10;96.50
74171;DHT22;62526;50.948;6.590;2022-10-16T03:53:04;13.10;96.50
74171;DHT22;62526;50.948;6.590;2022-10-16T03:55:31;13.20;96.60
74171;DHT22;62526;50.948;6.590;2022-10-16T03:57:57;13.20;96.60
74171;DHT22;62526;50.948;6.590;2022-10-16T04:00:24;13.20;96.60
74171;DHT22;62526;50.948;6.590;2022-10-16T04:02:50;13.20;96.60
74171;DHT22;62526;50.948;6.590;2022-10-16T04:05:17;13.20;96.60
74171;DHT22;62526;50.948;6.590;2022-10-16T04:07:44;13.10;96.60
74171;DHT22;62526;50.948;6.590;2022-10-16T04:10:10;13.20;96.60
74171;DHT22;62526;50.948;6.590;2022-10-16T04:12:37;13.10;96.60
74171;DHT22;62526;50.948;6.590;2022-10-16T04:15:04;13.10;96.70
74171;DHT22;62526;50.948;6.590;2022-10-16T04:17:30;13.00;96.60
74171;DHT22;62526;50.948;6.590;2022-10-16T04:19:57;13.00;96.70
74171;DHT22;62526;50.948;6.590;2022-10-16T04:22:24;13.00;96.70
74171;DHT22;62526;50.948;6.590;2022-10-16T04:24:50;12.90;96.80
74171;DHT22;62526;50.948;6.590;2022-10-16T04:27:17;12.90;96.90
74171;DHT22;62526;50.948;6.590;2022-10-16T04:29:44;12.90;97.00
74171;DHT22;62526;50.948;6.590;2022-10-16T04:32:10;12.80;97.00
74171;DHT22;62526;50.948;6.590;2022-10-16T04:34:38;12.80;97.10
74171;DHT22;62526;50.948;6.590;2022-10-16T04:37:04;12.80;97.10
74171;DHT22;62526;50.948;6.590;2022-10-16T04:39:31;12.70;97.10
74171;DHT22;62526;50.948;6.590;2022-10-16T04:41:57;12.70;97.30
74171;DHT22;62526;50.948;6.590;2022-10-16T04:44:24;12.60;97.30
74171;DHT22;62526;50.948;6.590;2022-10-16T04:46:51;12.70;97.90
74171;DHT22;62526;50.948;6.590;2022-10-16T04:49:17;12.70;97.50
74171;DHT22;62526;50.948;6.590;2022-10-16T04:51:44;12.70;97.50
74171;DHT22;62526;50.948;6.590;2022-10-16T04:54:10;12.70;97.50
74171;DHT22;62526;50.948;6.590;2022-10-16T04:56:37;12.70;97.50
74171;DHT22;62526;50.948;6.590;2022-10-16T04:59:04;12.70;97.50
74171;DHT22;62526;50.948;6.590;2022-10-16T05:01:30;12.70;97.60
74171;DHT22;62526;50.948;6.590;2022-10-16T05:03:57;12.60;97.50
74171;DHT22;62526;50.948;6.590;2022-10-16T05:06:24;12.60;97.60
74171;DHT22;62526;50.948;6.590;2022-10-16T05:08:50;12.60;97.60
74171;DHT22;62526;50.948;6.590;2022-10-16T05:11:17;12.60;97.60
74171;DHT22;62526;50.948;6.590;2022-10-16T05:13:44;12.60;97.50
74171;DHT22;62526;50.948;6.590;2022-10-16T05:16:10;12.50;97.50
74171;DHT22;62526;50.948;6.590;2022-10-16T05:18:37;12.50;97.50
74171;DHT22;62526;50.948;6.590;2022-10-16T05:21:04;12.50;97.60
74171;DHT22;62526;50.948;6.590;2022-10-16T05:23:30;12.60;97.70
74171;DHT22;62526;50.948;6.590;2022-10-16T05:25:57;12.60;97.80
74171;DHT22;62526;50.948;6.590;2022-10-16T05:28:26;12.60;97.70
74171;DHT22;62526;50.948;6.590;2022-10-16T05:30:52;12.60;97.60
74171;DHT22;62526;50.948;6.590;2022-10-16T05:33:20;12.70;97.60
74171;DHT22;62526;50.948;6.590;2022-10-16T05:35:46;12.70;97.50
74171;DHT22;62526;50.948;6.590;2022-10-16T05:38:13;12.70;97.50
74171;DHT22;62526;50.948;6.590;2022-10-16T05:40:40;12.70;97.40
74171;DHT22;62526;50.948;6.590;2022-10-16T05:43:07;12.70;97.40
74171;DHT22;62526;50.948;6.590;2022-10-16T05:45:34;12.70;97.40
74171;DHT22;62526;50.948;6.590;2022-10-16T05:48:00;12.60;97.40
74171;DHT22;62526;50.948;6.590;2022-10-16T05:50:27;12.60;97.70
74171;DHT22;62526;50.948;6.590;2022-10-16T05:52:54;12.60;97.40
74171;DHT22;62526;50.948;6.590;2022-10-16T05:55:20;12.60;97.60
74171;DHT22;62526;50.948;6.590;2022-10-16T05:57:47;12.60;97.30
74171;DHT22;62526;50.948;6.590;2022-10-16T06:00:14;12.60;97.70
74171;DHT22;62526;50.948;6.590;2022-10-16T06:02:40;12.60;97.70
74171;DHT22;62526;50.948;6.590;2022-10-16T06:05:07;12.60;97.70
74171;DHT22;62526;50.948;6.590;2022-10-16T06:07:34;12.60;97.90
74171;DHT22;62526;50.948;6.590;2022-10-16T06:10:00;12.50;97.70
74171;DHT22;62526;50.948;6.590;2022-10-16T06:12:27;12.50;97.60
74171;DHT22;62526;50.948;6.590;2022-10-16T06:14:54;12.50;97.60
74171;DHT22;62526;50.948;6.590;2022-10-16T06:17:20;12.50;97.50
74171;DHT22;62526;50.948;6.590;2022-10-16T06:19:47;12.50;97.40
74171;DHT22;62526;50.948;6.590;2022-10-16T06:22:14;12.50;97.40
74171;DHT22;62526;50.948;6.590;2022-10-16T06:24:40;12.40;97.50
74171;DHT22;62526;50.948;6.590;2022-10-16T06:27:07;12.50;97.70
74171;DHT22;62526;50.948;6.590;2022-10-16T06:29:33;12.50;97.70
74171;DHT22;62526;50.948;6.590;2022-10-16T06:32:01;12.50;97.90
74171;DHT22;62526;50.948;6.590;2022-10-16T06:34:28;12.50;97.90
74171;DHT22;62526;50.948;6.590;2022-10-16T06:36:55;12.60;97.90
74171;DHT22;62526;50.948;6.590;2022-10-16T06:39:22;12.70;97.90
74171;DHT22;62526;50.948;6.590;2022-10-16T06:41:49;12.70;97.80
74171;DHT22;62526;50.948;6.590;2022-10-16T06:44:16;12.70;97.90
74171;DHT22;62526;50.948;6.590;2022-10-16T06:46:42;12.70;98.00
74171;DHT22;62526;50.948;6.590;2022-10-16T06:49:09;12.80;98.00
74171;DHT22;62526;50.948;6.590;2022-10-16T06:51:35;12.90;98.00
74171;DHT22;62526;50.948;6.590;2022-10-16T06:54:02;13.00;98.00
74171;DHT22;62526;50.948;6.590;2022-10-16T06:56:29;13.10;97.90
74171;DHT22;62526;50.948;6.590;2022-10-16T06:58:56;13.10;97.80
74171;DHT22;62526;50.948;6.590;2022-10-16T07:01:23;13.20;97.80
74171;DHT22;62526;50.948;6.590;2022-10-16T07:03:49;13.30;97.70
74171;DHT22;62526;50.948;6.590;2022-10-16T07:06:17;13.30;98.00
74171;DHT22;62526;50.948;6.590;2022-10-16T07:08:43;13.40;97.70
74171;DHT22;62526;50.948;6.590;2022-10-16T07:11:10;13.40;97.70
74171;DHT22;62526;50.948;6.590;2022-10-16T07:13:36;13.50;97.70
74171;DHT22;62526;50.948;6.590;2022-10-16T07:16:05;13.50;97.80
74171;DHT22;62526;50.948;6.590;2022-10-16T07:18:32;13.50;97.80
74171;DHT22;62526;50.948;6.590;2022-10-16T07:21:03;13.60;97.80
74171;DHT22;62526;50.948;6.590;2022-10-16T07:23:29;13.60;97.80
74171;DHT22;62526;50.948;6.590;2022-10-16T07:25:56;13.60;97.70
74171;DHT22;62526;50.948;6.590;2022-10-16T07:28:22;13.60;97.70
74171;DHT22;62526;50.948;6.590;2022-10-16T07:30:49;13.60;97.80
74171;DHT22;62526;50.948;6.590;2022-10-16T07:33:16;13.60;97.80
74171;DHT22;62526;50.948;6.590;2022-10-16T07:35:50;13.70;97.80
74171;DHT22;62526;50.948;6.590;2022-10-16T07:38:16;13.60;97.80
74171;DHT22;62526;50.948;6.590;2022-10-16T07:40:42;13.70;97.70
74171;DHT22;62526;50.948;6.590;2022-10-16T07:43:09;13.70;97.60
74171;DHT22;62526;50.948;6.590;2022-10-16T07:45:36;13.70;97.50
74171;DHT22;62526;50.948;6.590;2022-10-16T07:48:02;13.80;97.70
74171;DHT22;62526;50.948;6.590;2022-10-16T07:50:29;13.80;97.20
74171;DHT22;62526;50.948;6.590;2022-10-16T07:52:56;13.90;97.00
74171;DHT22;62526;50.948;6.590;2022-10-16T07:55:22;14.00;97.00
74171;DHT22;62526;50.948;6.590;2022-10-16T07:57:49;14.20;96.80
74171;DHT22;62526;50.948;6.590;2022-10-16T08:00:16;14.40;96.10
74171;DHT22;62526;50.948;6.590;2022-10-16T08:02:42;14.50;96.50
74171;DHT22;62526;50.948;6.590;2022-10-16T08:05:09;14.70;95.70
74171;DHT22;62526;50.948;6.590;2022-10-16T08:07:36;14.80;95.50
74171;DHT22;62526;50.948;6.590;2022-10-16T08:10:03;15.00;95.40
74171;DHT22;62526;50.948;6.590;2022-10-16T08:12:29;15.00;95.20
74171;DHT22;62526;50.948;6.590;2022-10-16T08:14:56;15.10;95.00
74171;DHT22;62526;50.948;6.590;2022-10-16T08:17:23;15.10;94.40
74171;DHT22;62526;50.948;6.590;2022-10-16T08:19:49;15.20;94.40
74171;DHT22;62526;50.948;6.590;2022-10-16T08:22:16;15.20;94.50
74171;DHT22;62526;50.948;6.590;2022-10-16T08:24:43;15.40;94.50
74171;DHT22;62526;50.948;6.590;2022-10-16T08:27:10;15.40;94.40
74171;DHT22;62526;50.948;6.590;2022-10-16T08:29:37;15.50;94.50
74171;DHT22;62526;50.948;6.590;2022-10-16T08:32:03;15.60;93.80
74171;DHT22;62526;50.948;6.590;2022-10-16T08:34:31;15.80;93.90
74171;DHT22;62526;50.948;6.590;2022-10-16T08:36:57;15.80;93.80
74171;DHT22;62526;50.948;6.590;2022-10-16T08:39:24;15.90;93.60
74171;DHT22;62526;50.948;6.590;2022-10-16T08:41:59;16.00;93.00
74171;DHT22;62526;50.948;6.590;2022-10-16T08:47:18;16.20;92.90
74171;DHT22;62526;50.948;6.590;2022-10-16T08:49:48;16.30;92.70
74171;DHT22;62526;50.948;6.590;2022-10-16T08:52:11;16.30;91.80
74171;DHT22;62526;50.948;6.590;2022-10-16T08:54:40;16.40;92.20
74171;DHT22;62526;50.948;6.590;2022-10-16T08:57:09;16.40;91.30
74171;DHT22;62526;50.948;6.590;2022-10-16T08:59:34;16.50;91.30
74171;DHT22;62526;50.948;6.590;2022-10-16T09:02:00;16.60;91.30
74171;DHT22;62526;50.948;6.590;2022-10-16T09:07:32;16.80;90.40
74171;DHT22;62526;50.948;6.590;2022-10-16T09:10:09;16.80;89.50
74171;DHT22;62526;50.948;6.590;2022-10-16T09:13:15;16.90;90.10
74171;DHT22;62526;50.948;6.590;2022-10-16T09:15:24;17.00;89.20
74171;DHT22;62526;50.948;6.590;2022-10-16T09:17:59;17.10;88.00
74171;DHT22;62526;50.948;6.590;2022-10-16T09:21:04;17.20;88.70
74171;DHT22;62526;50.948;6.590;2022-10-16T09:23:28;17.30;87.80
74171;DHT22;62526;50.948;6.590;2022-10-16T09:25:54;17.30;87.00
74171;DHT22;62526;50.948;6.590;2022-10-16T09:28:20;17.40;86.20
74171;DHT22;62526;50.948;6.590;2022-10-16T09:30:48;17.60;85.00
74171;DHT22;62526;50.948;6.590;2022-10-16T09:33:15;17.60;84.90
74171;DHT22;62526;50.948;6.590;2022-10-16T09:35:45;17.70;83.00
74171;DHT22;62526;50.948;6.590;2022-10-16T09:40:49;17.80;84.40
74171;DHT22;62526;50.948;6.590;2022-10-16T09:43:26;17.80;81.50
74171;DHT22;62526;50.948;6.590;2022-10-16T09:45:55;17.90;82.50
74171;DHT22;62526;50.948;6.590;2022-10-16T09:48:22;18.00;81.50
74171;DHT22;62526;50.948;6.590;2022-10-16T09:50:57;18.10;81.00
74171;DHT22;62526;50.948;6.590;2022-10-16T09:53:23;18.20;79.00
74171;DHT22;62526;50.948;6.590;2022-10-16T09:55:50;18.30;78.80
74171;DHT22;62526;50.948;6.590;2022-10-16T09:58:16;18.40;79.80
74171;DHT22;62526;50.948;6.590;2022-10-16T10:00:51;18.40;78.90
74171;DHT22;62526;50.948;6.590;2022-10-16T10:03:33;18.40;78.80
74171;DHT22;62526;50.948;6.590;2022-10-16T10:05:50;18.60;79.40
74171;DHT22;62526;50.948;6.590;2022-10-16T10:08:16;18.70;76.10
74171;DHT22;62526;50.948;6.590;2022-10-16T10:10:43;18.80;76.60
74171;DHT22;62526;50.948;6.590;2022-10-16T10:13:18;18.90;75.10
74171;DHT22;62526;50.948;6.590;2022-10-16T10:15:44;19.00;75.80
74171;DHT22;62526;50.948;6.590;2022-10-16T10:18:16;19.20;75.60
74171;DHT22;62526;50.948;6.590;2022-10-16T10:20:42;19.50;75.30
74171;DHT22;62526;50.948;6.590;2022-10-16T10:23:22;19.50;75.20
74171;DHT22;62526;50.948;6.590;2022-10-16T10:26:01;19.50;72.70
74171;DHT22;62526;50.948;6.590;2022-10-16T10:28:45;19.10;73.20
74171;DHT22;62526;50.948;6.590;2022-10-16T10:31:46;19.00;73.60
74171;DHT22;62526;50.948;6.590;2022-10-16T10:34:23;19.10;74.60
74171;DHT22;62526;50.948;6.590;2022-10-16T10:36:45;19.20;74.10
74171;DHT22;62526;50.948;6.590;2022-10-16T10:39:19;19.30;73.70
74171;DHT22;62526;50.948;6.590;2022-10-16T10:42:03;19.20;73.50
74171;DHT22;62526;50.948;6.590;2022-10-16T10:44:36;19.20;71.70
74171;DHT22;62526;50.948;6.590;2022-10-16T10:47:06;19.20;71.20
74171;DHT22;62526;50.948;6.590;2022-10-16T10:49:41;19.20;71.90
74171;DHT22;62526;50.948;6.590;2022-10-16T10:52:11;19.20;71.90
74171;DHT22;62526;50.948;6.590;2022-10-16T11:00:02;19.30;71.90
74171;DHT22;62526;50.948;6.590;2022-10-16T11:02:38;19.30;72.30
74171;DHT22;62526;50.948;6.590;2022-10-16T11:05:22;19.30;71.60
74171;DHT22;62526;50.948;6.590;2022-10-16T11:07:49;19.40;72.30
74171;DHT22;62526;50.948;6.590;2022-10-16T11:10:17;19.50;71.90
74171;DHT22;62526;50.948;6.590;2022-10-16T11:12:44;19.60;70.70
74171;DHT22;62526;50.948;6.590;2022-10-16T11:15:18;19.80;70.00
74171;DHT22;62526;50.948;6.590;2022-10-16T11:17:48;20.10;69.60
74171;DHT22;62526;50.948;6.590;2022-10-16T11:20:18;20.40;68.20
74171;DHT22;62526;50.948;6.590;2022-10-16T11:22:50;20.50;68.00
74171;DHT22;62526;50.948;6.590;2022-10-16T11:25:18;20.60;68.60
74171;DHT22;62526;50.948;6.590;2022-10-16T11:30:26;20.80;67.70
74171;DHT22;62526;50.948;6.590;2022-10-16T11:33:00;21.20;64.60
74171;DHT22;62526;50.948;6.590;2022-10-16T11:35:25;21.20;64.60
74171;DHT22;62526;50.948;6.590;2022-10-16T11:37:50;21.00;64.30
74171;DHT22;62526;50.948;6.590;2022-10-16T11:40:22;20.70;66.50
74171;DHT22;62526;50.948;6.590;2022-10-16T11:42:51;21.30;66.10
74171;DHT22;62526;50.948;6.590;2022-10-16T11:45:24;21.20;65.90
74171;DHT22;62526;50.948;6.590;2022-10-16T11:47:51;21.90;64.70
74171;DHT22;62526;50.948;6.590;2022-10-16T11:50:23;22.40;63.60
74171;DHT22;62526;50.948;6.590;2022-10-16T11:52:52;22.80;63.10
74171;DHT22;62526;50.948;6.590;2022-10-16T11:55:22;23.10;59.10
74171;DHT22;62526;50.948;6.590;2022-10-16T11:57:49;22.90;59.40
74171;DHT22;62526;50.948;6.590;2022-10-16T12:00:26;22.90;58.70
74171;DHT22;62526;50.948;6.590;2022-10-16T12:03:14;22.90;58.80
74171;DHT22;62526;50.948;6.590;2022-10-16T12:05:50;22.70;58.10
74171;DHT22;62526;50.948;6.590;2022-10-16T12:08:12;22.50;59.60
74171;DHT22;62526;50.948;6.590;2022-10-16T12:10:39;21.80;59.60
74171;DHT22;62526;50.948;6.590;2022-10-16T12:13:25;21.60;60.50
74171;DHT22;62526;50.948;6.590;2022-10-16T12:15:32;21.70;58.50
74171;DHT22;62526;50.948;6.590;2022-10-16T12:17:59;21.70;59.20
74171;DHT22;62526;50.948;6.590;2022-10-16T12:20:30;21.70;59.90
74171;DHT22;62526;50.948;6.590;2022-10-16T12:23:00;21.70;59.40
74171;DHT22;62526;50.948;6.590;2022-10-16T12:25:30;21.80;58.60
74171;DHT22;62526;50.948;6.590;2022-10-16T12:28:02;21.80;58.20
74171;DHT22;62526;50.948;6.590;2022-10-16T12:30:28;21.80;57.70
74171;DHT22;62526;50.948;6.590;2022-10-16T12:32:55;21.70;58.50
74171;DHT22;62526;50.948;6.590;2022-10-16T12:35:21;21.80;59.20
74171;DHT22;62526;50.948;6.590;2022-10-16T12:37:48;22.10;58.90
74171;DHT22;62526;50.948;6.590;2022-10-16T12:40:24;22.10;58.80
74171;DHT22;62526;50.948;6.590;2022-10-16T12:42:49;22.50;58.10
74171;DHT22;62526;50.948;6.590;2022-10-16T12:45:31;22.80;57.10
74171;DHT22;62526;50.948;6.590;2022-10-16T12:47:58;23.30;56.50
74171;DHT22;62526;50.948;6.590;2022-10-16T12:50:28;23.60;55.20
74171;DHT22;62526;50.948;6.590;2022-10-16T12:52:53;24.00;54.50
74171;DHT22;62526;50.948;6.590;2022-10-16T12:55:20;23.90;52.60
74171;DHT22;62526;50.948;6.590;2022-10-16T12:58:08;23.90;53.50
74171;DHT22;62526;50.948;6.590;2022-10-16T13:01:11;23.80;53.50
74171;DHT22;62526;50.948;6.590;2022-10-16T13:06:20;24.50;51.80
74171;DHT22;62526;50.948;6.590;2022-10-16T13:11:43;25.60;49.80
74171;DHT22;62526;50.948;6.590;2022-10-16T13:17:01;26.70;47.10
74171;DHT22;62526;50.948;6.590;2022-10-16T13:19:38;27.10;46.60
74171;DHT22;62526;50.948;6.590;2022-10-16T13:24:49;27.70;45.00
74171;DHT22;62526;50.948;6.590;2022-10-16T13:27:34;28.30;43.40
74171;DHT22;62526;50.948;6.590;2022-10-16T13:32:33;29.00;43.00
74171;DHT22;62526;50.948;6.590;2022-10-16T13:35:00;29.20;42.30
74171;DHT22;62526;50.948;6.590;2022-10-16T13:37:27;29.80;40.20
74171;DHT22;62526;50.948;6.590;2022-10-16T13:40:17;30.00;39.40
74171;DHT22;62526;50.948;6.590;2022-10-16T13:42:39;29.90;39.70
74171;DHT22;62526;50.948;6.590;2022-10-16T13:45:16;29.00;40.90
74171;DHT22;62526;50.948;6.590;2022-10-16T13:47:34;28.10;42.40
74171;DHT22;62526;50.948;6.590;2022-10-16T13:50:06;28.60;43.20
74171;DHT22;62526;50.948;6.590;2022-10-16T13:52:32;28.50;43.10
74171;DHT22;62526;50.948;6.590;2022-10-16T13:54:59;28.60;42.70
74171;DHT22;62526;50.948;6.590;2022-10-16T13:57:25;28.10;43.90
74171;DHT22;62526;50.948;6.590;2022-10-16T13:59:52;27.40;45.30
74171;DHT22;62526;50.948;6.590;2022-10-16T14:05:07;26.10;47.30
74171;DHT22;62526;50.948;6.590;2022-10-16T14:07:31;25.90;47.90
74171;DHT22;62526;50.948;6.590;2022-10-16T14:10:01;26.20;48.00
74171;DHT22;62526;50.948;6.590;2022-10-16T14:12:26;26.00;48.60
74171;DHT22;62526;50.948;6.590;2022-10-16T14:14:54;25.10;50.10
74171;DHT22;62526;50.948;6.590;2022-10-16T14:17:24;25.10;50.10
74171;DHT22;62526;50.948;6.590;2022-10-16T14:19:50;24.70;51.00
74171;DHT22;62526;50.948;6.590;2022-10-16T14:22:26;24.20;52.80
74171;DHT22;62526;50.948;6.590;2022-10-16T14:24:49;23.90;53.70
74171;DHT22;62526;50.948;6.590;2022-10-16T14:27:26;23.50;55.00
74171;DHT22;62526;50.948;6.590;2022-10-16T14:29:49;23.20;55.90
74171;DHT22;62526;50.948;6.590;2022-10-16T14:32:22;22.90;56.50
74171;DHT22;62526;50.948;6.590;2022-10-16T14:34:52;22.60;57.10
74171;DHT22;62526;50.948;6.590;2022-10-16T14:37:23;22.30;57.80
74171;DHT22;62526;50.948;6.590;2022-10-16T14:39:49;22.20;58.60
74171;DHT22;62526;50.948;6.590;2022-10-16T14:42:16;22.00;58.80
74171;DHT22;62526;50.948;6.590;2022-10-16T14:44:43;22.00;59.90
74171;DHT22;62526;50.948;6.590;2022-10-16T14:47:13;22.20;58.90
74171;DHT22;62526;50.948;6.590;2022-10-16T14:49:41;22.10;58.80
74171;DHT22;62526;50.948;6.590;2022-10-16T14:52:09;22.10;59.10
74171;DHT22;62526;50.948;6.590;2022-10-16T14:54:35;22.20;60.30
74171;DHT22;62526;50.948;6.590;2022-10-16T14:57:02;22.10;60.30
74171;DHT22;62526;50.948;6.590;2022-10-16T14:59:40;22.00;61.30
74171;DHT22;62526;50.948;6.590;2022-10-16T15:02:27;22.10;61.60
74171;DHT22;62526;50.948;6.590;2022-10-16T15:04:52;22.70;60.50
74171;DHT22;62526;50.948;6.590;2022-10-16T15:07:18;22.80;59.80
74171;DHT22;62526;50.948;6.590;2022-10-16T15:09:45;22.80;60.00
74171;DHT22;62526;50.948;6.590;2022-10-16T15:12:11;22.60;60.00
74171;DHT22;62526;50.948;6.590;2022-10-16T15:14:38;22.50;60.60
74171;DHT22;62526;50.948;6.590;2022-10-16T15:17:05;22.30;61.80
74171;DHT22;62526;50.948;6.590;2022-10-16T15:19:31;22.20;61.60
74171;DHT22;62526;50.948;6.590;2022-10-16T15:21:58;22.10;62.10
74171;DHT22;62526;50.948;6.590;2022-10-16T15:24:25;21.90;62.30
74171;DHT22;62526;50.948;6.590;2022-10-16T15:26:51;21.70;64.10
74171;DHT22;62526;50.948;6.590;2022-10-16T15:29:18;21.60;65.10
74171;DHT22;62526;50.948;6.590;2022-10-16T15:31:45;21.40;65.80
74171;DHT22;62526;50.948;6.590;2022-10-16T15:34:11;21.20;66.60
74171;DHT22;62526;50.948;6.590;2022-10-16T15:36:38;21.10;68.20
74171;DHT22;62526;50.948;6.590;2022-10-16T15:39:10;20.80;67.90
74171;DHT22;62526;50.948;6.590;2022-10-16T15:41:32;20.80;67.90
74171;DHT22;62526;50.948;6.590;2022-10-16T15:43:59;20.70;68.70
74171;DHT22;62526;50.948;6.590;2022-10-16T15:46:26;20.60;69.20
74171;DHT22;62526;50.948;6.590;2022-10-16T15:48:56;20.60;69.50
74171;DHT22;62526;50.948;6.590;2022-10-16T15:51:19;20.40;70.30
74171;DHT22;62526;50.948;6.590;2022-10-16T15:53:46;20.40;71.20
74171;DHT22;62526;50.948;6.590;2022-10-16T15:56:13;20.30;71.60
74171;DHT22;62526;50.948;6.590;2022-10-16T15:58:40;20.30;72.10
74171;DHT22;62526;50.948;6.590;2022-10-16T16:01:07;20.20;72.10
74171;DHT22;62526;50.948;6.590;2022-10-16T16:03:35;20.10;72.30
74171;DHT22;62526;50.948;6.590;2022-10-16T16:06:05;20.10;72.70
74171;DHT22;62526;50.948;6.590;2022-10-16T16:08:32;19.70;72.80
74171;DHT22;62526;50.948;6.590;2022-10-16T16:11:02;20.00;73.70